createdAt,value
2022-12-01T00:02:03.400Z,-2.47
2022-12-01T00:04:34.263Z,-2.49
2022-12-01T00:07:04.845Z,-2.50
2022-12-01T00:09:50.317Z,-2.50
2022-12-01T00:12:21.397Z,-2.40
2022-12-01T00:14:55.204Z,-2.24
2022-12-01T00:17:26.964Z,-1.82
2022-12-01T00:19:57.500Z,-1.73
2022-12-01T00:22:28.194Z,-1.80
2022-12-01T00:25:01.529Z,-1.99
2022-12-01T00:27:33.302Z,-2.16
2022-12-01T00:30:04.231Z,-2.31
2022-12-01T00:32:35.057Z,-2.37
2022-12-01T00:35:05.684Z,-2.44
2022-12-01T00:37:37.749Z,-2.47
2022-12-01T00:40:12.725Z,-2.49
2022-12-01T00:42:43.253Z,-2.48
2022-12-01T00:45:14.527Z,-2.46
2022-12-01T00:47:45.080Z,-2.39
2022-12-01T00:50:15.784Z,-2.17
2022-12-01T00:52:46.277Z,-1.85
2022-12-01T00:55:19.384Z,-1.63
2022-12-01T00:57:49.960Z,-1.62
2022-12-01T01:00:21.242Z,-1.76
2022-12-01T01:02:51.910Z,-1.97
2022-12-01T01:05:22.528Z,-2.14
2022-12-01T01:07:53.102Z,-2.24
2022-12-01T01:10:26.339Z,-2.29
2022-12-01T01:12:56.887Z,-2.32
2022-12-01T01:15:27.413Z,-2.37
2022-12-01T01:17:57.966Z,-2.38
2022-12-01T01:20:28.449Z,-2.43
2022-12-01T01:22:59.361Z,-2.44
2022-12-01T01:25:32.406Z,-2.41
2022-12-01T01:28:03.088Z,-2.21
2022-12-01T01:30:33.814Z,-1.95
2022-12-01T01:33:04.452Z,-1.70
2022-12-01T01:35:34.917Z,-1.70
2022-12-01T01:38:05.573Z,-1.86
2022-12-01T01:40:45.164Z,-2.05
2022-12-01T01:43:18.912Z,-2.17
2022-12-01T01:45:49.400Z,-2.20
2022-12-01T01:48:20.299Z,-2.25
2022-12-01T01:50:50.874Z,-2.30
2022-12-01T01:53:21.593Z,-2.38
2022-12-01T01:55:55.054Z,-2.38
2022-12-01T01:58:26.547Z,-2.33
2022-12-01T02:00:57.125Z,-2.24
2022-12-01T02:03:29.278Z,-2.14
2022-12-01T02:06:04.677Z,-2.05
2022-12-01T02:08:38.449Z,-2.03
2022-12-01T02:11:51.305Z,-1.82
2022-12-01T02:14:58.784Z,-1.60
2022-12-01T02:17:41.759Z,-1.38
2022-12-01T02:20:43.670Z,-1.20
2022-12-01T02:23:36.722Z,-1.00
2022-12-01T02:26:25.713Z,-0.85
2022-12-01T02:29:11.447Z,-0.71
2022-12-01T02:31:50.633Z,-0.58
2022-12-01T02:34:28.639Z,-0.47
2022-12-01T02:37:07.147Z,-0.36
2022-12-01T02:39:41.331Z,-0.26
2022-12-01T02:42:37.818Z,-0.18
2022-12-01T02:45:10.484Z,-0.10
2022-12-01T02:47:45.157Z,-0.02
2022-12-01T02:50:16.998Z,0.05
2022-12-01T02:52:48.316Z,0.10
2022-12-01T02:55:18.790Z,0.16
2022-12-01T02:57:49.389Z,0.20
2022-12-01T03:00:21.517Z,0.23
2022-12-01T03:03:25.781Z,0.28
2022-12-01T03:06:03.241Z,0.33
2022-12-01T03:08:46.288Z,0.35
2022-12-01T03:11:29.889Z,0.38
2022-12-01T03:14:12.343Z,0.43
2022-12-01T03:16:52.828Z,0.38
2022-12-01T03:19:33.282Z,0.50
2022-12-01T03:22:11.810Z,0.50
2022-12-01T03:24:47.060Z,0.52
2022-12-01T03:27:21.688Z,0.54
2022-12-01T03:29:57.892Z,0.55
2022-12-01T03:32:32.584Z,0.58
2022-12-01T03:35:11.239Z,0.58
2022-12-01T03:37:46.306Z,0.60
2022-12-01T03:40:21.314Z,0.60
2022-12-01T03:42:57.996Z,0.61
2022-12-01T03:45:35.136Z,0.63
2022-12-01T03:48:06.321Z,0.64
2022-12-01T03:50:45.611Z,0.65
2022-12-01T03:53:25.254Z,0.66
2022-12-01T03:56:01.431Z,0.67
2022-12-01T03:58:37.009Z,0.64
2022-12-01T04:01:10.302Z,0.64
2022-12-01T04:03:41.100Z,0.63
2022-12-01T04:06:14.303Z,0.61
2022-12-01T04:08:44.952Z,0.61
2022-12-01T04:11:32.394Z,0.60
2022-12-01T04:14:03.404Z,0.59
2022-12-01T04:16:34.073Z,0.59
2022-12-01T04:19:04.733Z,0.58
2022-12-01T04:21:37.902Z,0.57
2022-12-01T04:24:09.028Z,0.58
2022-12-01T04:26:40.534Z,0.60
2022-12-01T04:29:14.528Z,0.61
2022-12-01T04:31:45.182Z,0.62
2022-12-01T04:34:15.651Z,0.63
2022-12-01T04:36:48.805Z,0.64
2022-12-01T04:39:19.401Z,0.64
2022-12-01T04:41:50.051Z,0.67
2022-12-01T04:44:21.103Z,0.67
2022-12-01T04:46:51.803Z,0.69
2022-12-01T04:49:23.192Z,0.69
2022-12-01T04:51:56.663Z,0.69
2022-12-01T04:54:27.370Z,0.68
2022-12-01T04:56:57.927Z,0.47
2022-12-01T04:59:28.424Z,0.01
2022-12-01T05:01:59.031Z,-0.56
2022-12-01T05:04:31.434Z,-1.03
2022-12-01T05:07:04.804Z,-1.52
2022-12-01T05:09:35.292Z,-1.95
2022-12-01T05:12:05.860Z,-2.28
2022-12-01T05:14:36.397Z,-2.50
2022-12-01T05:17:07.009Z,-2.65
2022-12-01T05:20:01.826Z,-2.74
2022-12-01T05:23:03.847Z,-2.79
2022-12-01T05:25:26.797Z,-2.83
2022-12-01T05:27:57.595Z,-2.61
2022-12-01T05:30:28.909Z,-2.30
2022-12-01T05:32:59.984Z,-2.21
2022-12-01T05:35:30.567Z,-2.37
2022-12-01T05:38:07.851Z,-2.52
2022-12-01T05:40:39.157Z,-2.63
2022-12-01T05:43:09.811Z,-2.70
2022-12-01T05:45:40.277Z,-2.75
2022-12-01T05:48:12.240Z,-2.80
2022-12-01T05:50:43.287Z,-2.71
2022-12-01T05:53:20.140Z,-2.62
2022-12-01T05:55:55.226Z,-2.47
2022-12-01T05:58:25.877Z,-2.25
2022-12-01T06:00:56.370Z,-2.04
2022-12-01T06:03:26.978Z,-1.81
2022-12-01T06:05:57.577Z,-1.59
2022-12-01T06:08:30.994Z,-1.41
2022-12-01T06:11:01.989Z,-1.24
2022-12-01T06:13:32.520Z,-1.06
2022-12-01T06:16:05.400Z,-0.90
2022-12-01T06:18:37.921Z,-0.77
2022-12-01T06:21:09.901Z,-0.64
2022-12-01T06:23:43.119Z,-0.53
2022-12-01T06:26:13.686Z,-0.42
2022-12-01T06:28:44.514Z,-0.32
2022-12-01T06:31:14.968Z,-0.25
2022-12-01T06:33:45.544Z,-0.18
2022-12-01T06:36:15.995Z,-0.12
2022-12-01T06:38:49.046Z,-0.05
2022-12-01T06:41:19.643Z,-0.02
2022-12-01T06:43:50.125Z,0.03
2022-12-01T06:46:20.685Z,0.07
2022-12-01T06:48:51.981Z,0.11
2022-12-01T06:51:22.585Z,0.13
2022-12-01T06:54:05.094Z,0.20
2022-12-01T06:56:36.003Z,0.22
2022-12-01T06:59:06.644Z,0.26
2022-12-01T07:01:37.846Z,0.30
2022-12-01T07:08:01.628Z,0.36
2022-12-01T07:10:32.117Z,0.38
2022-12-01T07:13:02.631Z,0.42
2022-12-01T07:15:32.998Z,0.43
2022-12-01T07:18:03.526Z,0.43
2022-12-01T07:20:34.049Z,0.44
2022-12-01T07:23:07.185Z,0.45
2022-12-01T07:25:37.749Z,0.45
2022-12-01T07:28:08.571Z,0.47
2022-12-01T07:30:39.240Z,0.45
2022-12-01T07:33:09.797Z,0.45
2022-12-01T07:35:40.301Z,0.46
2022-12-01T07:38:16.594Z,0.45
2022-12-01T07:40:51.293Z,0.47
2022-12-01T07:43:21.664Z,0.45
2022-12-01T07:45:52.258Z,0.46
2022-12-01T07:48:22.902Z,0.45
2022-12-01T07:50:53.390Z,0.46
2022-12-01T07:53:27.135Z,0.45
2022-12-01T07:55:57.712Z,0.45
2022-12-01T07:58:28.438Z,0.44
2022-12-01T08:00:59.088Z,0.43
2022-12-01T08:03:29.629Z,0.42
2022-12-01T08:06:00.656Z,0.40
2022-12-01T08:08:38.556Z,0.38
2022-12-01T08:11:11.287Z,0.38
2022-12-01T08:13:41.985Z,0.39
2022-12-01T08:16:14.109Z,0.38
2022-12-01T08:18:45.639Z,0.39
2022-12-01T08:21:17.985Z,0.39
2022-12-01T08:23:51.643Z,0.41
2022-12-01T08:26:22.901Z,0.42
2022-12-01T08:28:53.678Z,0.44
2022-12-01T08:31:26.371Z,0.45
2022-12-01T08:33:57.793Z,0.45
2022-12-01T08:36:28.962Z,0.49
2022-12-01T08:39:02.120Z,0.49
2022-12-01T08:41:32.662Z,0.49
2022-12-01T08:44:03.325Z,0.48
2022-12-01T08:46:36.309Z,0.47
2022-12-01T08:49:08.044Z,0.43
2022-12-01T08:51:39.212Z,0.36
2022-12-01T08:54:14.433Z,0.31
2022-12-01T08:56:46.801Z,0.30
2022-12-01T08:59:17.685Z,0.25
2022-12-01T09:01:57.742Z,0.26
2022-12-01T09:04:30.045Z,0.27
2022-12-01T09:07:00.822Z,0.26
2022-12-01T09:09:33.961Z,0.25
2022-12-01T09:12:04.424Z,0.25
2022-12-01T09:14:35.016Z,0.26
2022-12-01T09:17:05.709Z,0.28
2022-12-01T09:19:36.257Z,0.28
2022-12-01T09:22:06.812Z,0.29
2022-12-01T09:24:40.319Z,0.31
2022-12-01T09:27:13.477Z,0.33
2022-12-01T09:29:44.064Z,0.35
2022-12-01T09:32:14.831Z,0.35
2022-12-01T09:34:45.368Z,0.34
2022-12-01T09:37:15.804Z,0.33
2022-12-01T09:39:49.195Z,0.33
2022-12-01T09:42:32.273Z,0.34
2022-12-01T09:45:07.379Z,0.34
2022-12-01T09:47:40.359Z,0.35
2022-12-01T09:50:15.072Z,0.39
2022-12-01T09:52:49.593Z,0.40
2022-12-01T09:55:26.259Z,0.46
2022-12-01T09:57:58.997Z,0.50
2022-12-01T10:00:32.933Z,0.52
2022-12-01T10:03:10.092Z,0.56
2022-12-01T10:06:18.666Z,0.58
2022-12-01T10:08:44.387Z,0.59
2022-12-01T10:11:29.140Z,0.61
2022-12-01T10:13:59.688Z,0.66
2022-12-01T10:16:36.423Z,0.68
2022-12-01T10:19:13.139Z,0.68
2022-12-01T10:22:00.017Z,0.67
2022-12-01T10:24:43.536Z,0.68
2022-12-01T10:27:25.008Z,0.67
2022-12-01T10:30:05.023Z,0.67
2022-12-01T10:32:47.321Z,0.69
2022-12-01T10:35:20.284Z,0.71
2022-12-01T10:37:59.661Z,0.74
2022-12-01T10:40:34.845Z,0.76
2022-12-01T10:43:08.006Z,0.75
2022-12-01T10:45:44.239Z,0.75
2022-12-01T10:48:18.509Z,0.76
2022-12-01T10:50:51.065Z,0.78
2022-12-01T10:53:32.689Z,0.82
2022-12-01T10:56:09.468Z,0.81
2022-12-01T10:58:49.220Z,0.84
2022-12-01T11:01:23.654Z,0.86
2022-12-01T11:05:54.094Z,0.87
2022-12-01T11:08:27.664Z,0.87
2022-12-01T11:10:59.290Z,0.87
2022-12-01T11:13:32.319Z,0.82
2022-12-01T11:16:05.383Z,0.79
2022-12-01T11:18:37.836Z,0.78
2022-12-01T11:21:15.033Z,0.75
2022-12-01T11:23:49.498Z,0.75
2022-12-01T11:26:24.121Z,0.74
2022-12-01T11:28:57.826Z,0.73
2022-12-01T11:31:41.227Z,0.74
2022-12-01T11:34:21.835Z,0.73
2022-12-01T11:36:58.856Z,0.72
2022-12-01T11:39:32.722Z,0.75
2022-12-01T11:42:05.694Z,0.77
2022-12-01T11:44:51.306Z,0.77
2022-12-01T11:50:28.096Z,0.74
2022-12-01T11:53:01.529Z,0.71
2022-12-01T11:55:33.328Z,0.71
2022-12-01T11:58:06.991Z,0.71
2022-12-01T12:00:48.526Z,0.72
2022-12-01T12:03:26.916Z,0.71
2022-12-01T12:06:39.492Z,0.72
2022-12-01T12:09:26.678Z,0.73
2022-12-01T12:12:10.398Z,0.76
2022-12-01T12:14:59.891Z,0.78
2022-12-01T12:17:52.340Z,0.80
2022-12-01T12:20:41.919Z,0.79
2022-12-01T12:23:28.690Z,0.81
2022-12-01T12:26:11.838Z,0.79
2022-12-01T12:28:55.827Z,0.76
2022-12-01T12:31:36.450Z,0.75
2022-12-01T12:34:23.156Z,0.75
2022-12-01T12:37:05.499Z,0.75
2022-12-01T12:39:53.953Z,0.77
2022-12-01T12:42:35.910Z,0.79
2022-12-01T12:45:13.206Z,0.81
2022-12-01T12:48:07.028Z,0.78
2022-12-01T12:50:45.781Z,0.77
2022-12-01T12:53:21.363Z,0.77
2022-12-01T12:55:52.982Z,0.75
2022-12-01T12:58:30.347Z,0.72
2022-12-01T13:01:04.604Z,0.70
2022-12-01T13:03:45.280Z,0.69
2022-12-01T13:06:22.305Z,0.70
2022-12-01T13:08:56.821Z,0.71
2022-12-01T13:11:32.460Z,0.70
2022-12-01T13:14:10.849Z,0.71
2022-12-01T13:16:46.296Z,0.72
2022-12-01T13:19:18.253Z,0.71
2022-12-01T13:21:51.572Z,0.70
2022-12-01T13:24:25.882Z,0.72
2022-12-01T13:27:00.523Z,0.71
2022-12-01T13:29:44.064Z,0.72
2022-12-01T13:32:31.385Z,0.71
2022-12-01T13:35:03.664Z,0.68
2022-12-01T13:37:36.577Z,0.68
2022-12-01T13:40:13.563Z,0.65
2022-12-01T13:42:44.725Z,0.67
2022-12-01T13:45:22.837Z,0.67
2022-12-01T13:47:56.034Z,0.68
2022-12-01T13:50:56.071Z,0.70
2022-12-01T13:53:37.597Z,0.71
2022-12-01T13:56:30.426Z,0.73
2022-12-01T13:59:00.909Z,0.74
2022-12-01T14:01:49.686Z,0.75
2022-12-01T14:04:40.855Z,0.73
2022-12-01T14:07:39.756Z,0.70
2022-12-01T14:10:19.733Z,0.65
2022-12-01T14:12:50.345Z,0.64
2022-12-01T14:15:45.663Z,0.63
2022-12-01T14:18:40.581Z,0.63
2022-12-01T14:21:14.317Z,0.61
2022-12-01T14:24:02.956Z,0.55
2022-12-01T14:26:34.973Z,0.57
2022-12-01T14:29:26.892Z,0.52
2022-12-01T14:32:26.547Z,0.47
2022-12-01T14:35:04.154Z,0.44
2022-12-01T14:37:52.871Z,0.42
2022-12-01T14:40:32.196Z,0.34
2022-12-01T14:43:16.702Z,0.39
2022-12-01T14:45:57.186Z,0.37
2022-12-01T14:48:35.528Z,0.36
2022-12-01T14:51:19.984Z,0.36
2022-12-01T14:53:53.827Z,0.36
2022-12-01T14:56:27.177Z,0.37
2022-12-01T14:58:59.668Z,0.37
2022-12-01T15:01:35.770Z,0.39
2022-12-01T15:04:08.285Z,0.39
2022-12-01T15:06:41.454Z,0.39
2022-12-01T15:12:08.652Z,0.33
2022-12-01T15:14:41.022Z,0.37
2022-12-01T15:17:31.761Z,0.35
2022-12-01T15:20:02.470Z,0.32
2022-12-01T15:22:37.423Z,0.30
2022-12-01T15:25:16.599Z,0.28
2022-12-01T15:27:47.559Z,0.30
2022-12-01T15:30:19.792Z,0.28
2022-12-01T15:32:50.533Z,0.28
2022-12-01T15:35:24.042Z,0.26
2022-12-01T15:37:58.109Z,0.22
2022-12-01T15:43:24.254Z,0.23
2022-12-01T15:45:58.996Z,0.23
2022-12-01T15:48:34.856Z,0.23
2022-12-01T15:51:15.629Z,0.24
2022-12-01T15:53:54.235Z,0.24
2022-12-01T15:56:30.447Z,0.25
2022-12-01T15:59:07.805Z,0.22
2022-12-01T16:01:39.851Z,0.26
2022-12-01T16:04:20.453Z,0.25
2022-12-01T16:06:58.984Z,0.23
2022-12-01T16:09:34.906Z,0.20
2022-12-01T16:12:22.169Z,0.20
2022-12-01T16:14:55.948Z,0.18
2022-12-01T16:17:27.590Z,0.17
2022-12-01T16:20:19.870Z,0.16
2022-12-01T16:22:52.376Z,0.17
2022-12-01T16:25:35.543Z,0.18
2022-12-01T16:28:07.327Z,0.19
2022-12-01T16:30:42.633Z,0.19
2022-12-01T16:33:19.834Z,0.19
2022-12-01T16:35:50.630Z,0.17
2022-12-01T16:38:23.426Z,0.15
2022-12-01T16:40:58.481Z,0.12
2022-12-01T16:43:30.506Z,0.11
2022-12-01T16:46:03.466Z,0.11
2022-12-01T16:48:35.187Z,0.13
2022-12-01T16:51:07.994Z,0.12
2022-12-01T16:53:38.753Z,0.05
2022-12-01T16:56:16.135Z,0.13
2022-12-01T16:58:46.776Z,0.16
2022-12-01T17:01:17.941Z,0.16
2022-12-01T17:03:48.637Z,0.16
2022-12-01T17:06:21.156Z,0.15
2022-12-01T17:08:52.039Z,0.15
2022-12-01T17:11:25.193Z,-0.01
2022-12-01T17:13:56.276Z,-0.40
2022-12-01T17:16:26.903Z,-0.94
2022-12-01T17:18:57.542Z,-1.46
2022-12-01T17:21:28.075Z,-1.86
2022-12-01T17:23:58.790Z,-2.09
2022-12-01T17:26:31.853Z,-2.04
2022-12-01T17:29:02.445Z,-1.87
2022-12-01T17:31:32.999Z,-1.74
2022-12-01T17:34:03.603Z,-1.63
2022-12-01T17:36:34.183Z,-1.54
2022-12-01T17:39:04.873Z,-1.53
2022-12-01T17:41:38.578Z,-1.58
2022-12-01T17:44:09.505Z,-1.67
2022-12-01T17:46:41.965Z,-1.79
2022-12-01T17:49:13.445Z,-1.91
2022-12-01T17:51:44.333Z,-2.03
2022-12-01T17:54:14.967Z,-1.99
2022-12-01T17:56:48.385Z,-1.86
2022-12-01T17:59:19.013Z,-1.78
2022-12-01T18:01:49.727Z,-1.68
2022-12-01T18:04:20.300Z,-1.61
2022-12-01T18:06:54.058Z,-1.58
2022-12-01T18:09:25.304Z,-1.61
2022-12-01T18:11:59.674Z,-1.71
2022-12-01T18:14:30.302Z,-1.81
2022-12-01T18:17:00.773Z,-1.95
2022-12-01T18:19:31.326Z,-2.06
2022-12-01T18:22:01.936Z,-2.05
2022-12-01T18:24:33.196Z,-1.95
2022-12-01T18:27:06.412Z,-1.81
2022-12-01T18:29:37.068Z,-1.71
2022-12-01T18:32:07.979Z,-1.64
2022-12-01T18:34:38.997Z,-1.61
2022-12-01T18:37:09.531Z,-1.61
2022-12-01T18:39:40.239Z,-1.61
2022-12-01T18:42:14.127Z,-1.62
2022-12-01T18:44:45.153Z,-1.73
2022-12-01T18:47:15.729Z,-1.61
2022-12-01T18:49:46.263Z,-1.60
2022-12-01T18:52:16.916Z,-1.69
2022-12-01T18:54:47.532Z,-1.90
2022-12-01T19:00:35.711Z,-2.62
2022-12-01T19:03:06.468Z,-2.92
2022-12-01T19:05:47.389Z,-3.19
2022-12-01T19:08:22.040Z,-3.34
2022-12-01T19:11:01.288Z,-3.29
2022-12-01T19:13:34.149Z,-3.05
2022-12-01T19:16:12.716Z,-2.78
2022-12-01T19:18:43.622Z,-2.89
2022-12-01T19:21:16.726Z,-3.06
2022-12-01T19:23:47.601Z,-3.27
2022-12-01T19:26:20.436Z,-3.49
2022-12-01T19:28:51.886Z,-3.65
2022-12-01T19:31:26.645Z,-3.79
2022-12-01T19:33:57.818Z,-3.87
2022-12-01T19:36:30.742Z,-3.94
2022-12-01T19:39:04.318Z,-4.02
2022-12-01T19:41:40.285Z,-4.05
2022-12-01T19:44:11.832Z,-3.97
2022-12-01T19:46:45.717Z,-3.74
2022-12-01T19:49:16.244Z,-3.44
2022-12-01T19:51:46.804Z,-3.08
2022-12-01T19:54:19.994Z,-3.18
2022-12-01T19:56:50.571Z,-3.35
2022-12-01T19:59:21.082Z,-3.51
2022-12-01T20:01:54.348Z,-3.62
2022-12-01T20:04:25.011Z,-3.70
2022-12-01T20:06:55.504Z,-3.77
2022-12-01T20:09:26.413Z,-3.81
2022-12-01T20:11:57.246Z,-3.85
2022-12-01T20:14:28.086Z,-3.88
2022-12-01T20:17:01.513Z,-3.89
2022-12-01T20:19:32.182Z,-3.85
2022-12-01T20:22:03.042Z,-3.65
2022-12-01T20:24:33.528Z,-3.41
2022-12-01T20:27:04.025Z,-3.05
2022-12-01T20:29:34.700Z,-3.06
2022-12-01T20:32:08.506Z,-3.25
2022-12-01T20:34:39.397Z,-3.38
2022-12-01T20:37:11.133Z,-3.47
2022-12-01T20:39:41.772Z,-3.57
2022-12-01T20:42:13.191Z,-3.67
2022-12-01T20:44:43.852Z,-3.66
2022-12-01T20:47:18.777Z,-3.49
2022-12-01T20:49:52.019Z,-3.26
2022-12-01T20:52:24.653Z,-3.05
2022-12-01T20:54:55.220Z,-2.80
2022-12-01T20:57:25.721Z,-2.56
2022-12-01T20:59:56.397Z,-2.34
2022-12-01T21:02:29.661Z,-2.14
2022-12-01T21:05:00.456Z,-1.98
2022-12-01T21:07:31.186Z,-1.80
2022-12-01T21:10:03.161Z,-1.65
2022-12-01T21:12:46.241Z,-1.56
2022-12-01T21:15:24.217Z,-1.39
2022-12-01T21:18:01.150Z,-1.33
2022-12-01T21:20:33.474Z,-1.22
2022-12-01T21:23:09.157Z,-1.15
2022-12-01T21:25:41.811Z,-1.08
2022-12-01T21:28:24.020Z,-1.02
2022-12-01T21:31:02.744Z,-1.00
2022-12-01T21:33:39.273Z,-1.03
2022-12-01T21:36:18.794Z,-0.99
2022-12-01T21:38:51.234Z,-1.08
2022-12-01T21:41:27.247Z,-1.14
2022-12-01T21:44:03.248Z,-1.25
2022-12-01T21:46:33.974Z,-1.25
2022-12-01T21:49:15.608Z,-1.28
2022-12-01T21:51:46.856Z,-1.36
2022-12-01T21:54:21.747Z,-1.46
2022-12-01T21:56:54.511Z,-1.52
2022-12-01T21:59:26.545Z,-1.56
2022-12-01T22:01:58.371Z,-1.62
2022-12-01T22:04:33.853Z,-1.65
2022-12-01T22:07:05.291Z,-1.58
2022-12-01T22:09:38.538Z,-1.54
2022-12-01T22:12:27.063Z,-1.58
2022-12-01T22:15:03.847Z,-1.61
2022-12-01T22:17:34.343Z,-1.64
2022-12-01T22:20:23.914Z,-1.72
2022-12-01T22:22:54.436Z,-1.69
2022-12-01T22:25:30.127Z,-1.72
2022-12-01T22:28:01.726Z,-1.64
2022-12-01T22:30:32.283Z,-1.61
2022-12-01T22:33:04.394Z,-1.63
2022-12-01T22:35:42.190Z,-1.67
2022-12-01T22:38:28.560Z,-1.73
2022-12-01T22:41:01.091Z,-1.77
2022-12-01T22:43:35.289Z,-1.81
2022-12-01T22:46:15.984Z,-1.83
2022-12-01T22:48:48.872Z,-1.84
2022-12-01T22:51:32.504Z,-1.87
2022-12-01T22:54:28.131Z,-1.88
2022-12-01T22:57:06.404Z,-1.91
2022-12-01T22:59:38.489Z,-1.90
2022-12-01T23:02:20.530Z,-1.84
2022-12-01T23:04:53.145Z,-1.79
2022-12-01T23:07:34.318Z,-1.82
2022-12-01T23:10:17.374Z,-1.87
2022-12-01T23:12:49.099Z,-1.88
2022-12-01T23:15:34.237Z,-1.90
2022-12-01T23:18:14.755Z,-1.90
2022-12-01T23:20:47.036Z,-1.90
2022-12-01T23:23:22.089Z,-1.90
2022-12-01T23:25:53.641Z,-1.88
2022-12-01T23:28:24.180Z,-1.76
2022-12-01T23:30:57.936Z,-1.76
2022-12-01T23:33:31.723Z,-1.82
2022-12-01T23:36:07.130Z,-1.85
2022-12-01T23:38:44.180Z,-1.87
2022-12-01T23:41:25.117Z,-1.91
2022-12-01T23:44:06.675Z,-1.96
2022-12-01T23:46:37.394Z,-1.94
2022-12-01T23:49:14.262Z,-1.91
2022-12-01T23:51:49.047Z,-1.84
2022-12-01T23:54:24.926Z,-1.81
2022-12-01T23:56:58.193Z,-1.85
2022-12-01T23:59:28.841Z,-1.88
